.
WxDataArchive / Data Records for 2009-12-12
2009-12-11 December 2009 2009-12-13

Data Records for Saturday, 12 December 2009

Time	Temp	Chill	HIndex	Humid	Dewpt	 Wind 	HiWind	WindDir	Rain 	Barom 
-----	----	-----	------	-----	-----	------	------	-------	-----	----- 
00:00	23.9	23.9	23.9	61	12.4	0	2	248	0.00	30.414 
00:05	23.9	23.9	23.9	61	12.4	0	3	248	0.00	30.414 
00:10	23.8	23.8	23.8	61	12.3	0	2	248	0.00	30.414 
00:15	23.5	23.5	23.5	62	12.4	0	2	248	0.00	30.410 
00:20	23.2	23.2	23.2	62	12.1	0	1	248	0.00	30.410 
00:25	23.0	23.0	23.0	62	11.9	0	2	248	0.00	30.410 
00:30	23.0	23.0	23.0	63	12.3	0	2	248	0.00	30.409 
00:35	23.0	23.0	23.0	62	11.9	0	2	248	0.00	30.409 
00:40	23.0	23.0	23.0	62	11.9	0	2	248	0.00	30.409 
00:45	23.0	23.0	23.0	62	11.9	0	1	248	0.00	30.411 
00:50	22.9	22.9	22.9	62	11.9	0	1	248	0.00	30.411 
00:55	22.9	22.9	22.9	62	11.9	0	1	248	0.00	30.411 
01:00	22.7	22.7	22.7	63	12.0	0	0	---	0.00	30.414 
01:05	22.7	22.7	22.7	63	12.0	0	1	248	0.00	30.414 
01:10	22.7	22.7	22.7	62	11.7	0	4	248	0.00	30.414 
01:15	22.7	22.7	22.7	62	11.7	0	1	248	0.00	30.415 
01:20	22.5	22.5	22.5	62	11.5	0	0	---	0.00	30.415 
01:25	22.4	22.4	22.4	62	11.4	0	2	248	0.00	30.415 
01:30	22.4	22.4	22.4	63	11.7	0	1	248	0.00	30.417 
01:35	22.4	22.4	22.4	63	11.7	0	3	248	0.00	30.417 
01:40	22.5	22.5	22.5	62	11.5	0	3	248	0.00	30.417 
01:45	22.7	22.7	22.7	62	11.7	0	1	248	0.00	30.414 
01:50	22.7	22.7	22.7	62	11.7	0	1	248	0.00	30.414 
01:55	22.5	22.5	22.5	62	11.5	0	1	248	0.00	30.414 
02:00	22.4	22.4	22.4	62	11.4	0	1	248	0.00	30.415 
02:05	22.2	22.2	22.2	62	11.2	0	1	248	0.00	30.415 
02:10	21.9	21.9	21.9	62	10.9	0	0	---	0.00	30.415 
02:15	21.8	21.8	21.8	63	11.2	0	0	---	0.00	30.414 
02:20	21.3	21.3	21.3	64	11.0	0	0	---	0.00	30.414 
02:25	21.1	21.1	21.1	64	10.9	0	0	---	0.00	30.414 
02:30	21.0	21.0	21.0	64	10.8	0	0	---	0.00	30.421 
02:35	20.6	20.6	20.6	65	10.7	0	1	248	0.00	30.421 
02:40	20.5	20.5	20.5	65	10.6	0	0	---	0.00	30.421 
02:45	20.3	20.3	20.3	66	10.8	0	0	---	0.00	30.431 
02:50	20.0	20.0	20.0	66	10.5	0	0	---	0.00	30.431 
02:55	19.9	19.9	19.9	66	10.4	0	0	---	0.00	30.431 
03:00	19.7	19.7	19.7	67	10.5	0	0	---	0.00	30.433 
03:05	19.5	19.5	19.5	67	10.4	0	0	---	0.00	30.433 
03:10	19.4	19.4	19.4	67	10.3	0	0	---	0.00	30.433 
03:15	19.4	19.4	19.4	68	10.6	0	0	---	0.00	30.436 
03:20	19.2	19.2	19.2	68	10.4	0	0	---	0.00	30.436 
03:25	19.2	19.2	19.2	68	10.4	0	0	---	0.00	30.436 
03:30	19.2	19.2	19.2	68	10.4	0	2	248	0.00	30.437 
03:35	19.4	19.4	19.4	68	10.6	0	0	---	0.00	30.437 
03:40	19.2	19.2	19.2	67	10.1	0	0	---	0.00	30.437 
03:45	19.1	19.1	19.1	67	10.0	0	0	---	0.00	30.438 
03:50	18.9	18.9	18.9	68	10.1	0	0	---	0.00	30.438 
03:55	18.8	18.8	18.8	68	10.0	0	0	---	0.00	30.438 
04:00	18.6	18.6	18.6	68	9.8	0	0	---	0.00	30.438 
04:05	18.6	18.6	18.6	68	9.8	0	0	---	0.00	30.438 
04:10	18.4	18.4	18.4	68	9.6	0	0	---	0.00	30.438 
04:15	18.4	18.4	18.4	69	10.0	0	0	---	0.00	30.439 
04:20	18.3	18.3	18.3	69	9.9	0	0	---	0.00	30.439 
04:25	18.3	18.3	18.3	69	9.9	0	0	---	0.00	30.439 
04:30	18.1	18.1	18.1	69	9.7	0	0	---	0.00	30.438 
04:35	18.1	18.1	18.1	69	9.7	0	0	---	0.00	30.438 
04:40	18.0	18.0	18.0	69	9.6	0	0	---	0.00	30.438 
04:45	18.0	18.0	18.0	69	9.6	0	0	---	0.00	30.436 
04:50	18.0	18.0	18.0	69	9.6	0	0	---	0.00	30.436 
04:55	18.0	18.0	18.0	69	9.6	0	0	---	0.00	30.436 
05:00	18.1	18.1	18.1	69	9.7	0	0	---	0.00	30.434 
05:05	18.1	18.1	18.1	69	9.7	0	0	---	0.00	30.434 
05:10	18.1	18.1	18.1	69	9.7	0	0	---	0.00	30.434 
05:15	18.4	18.4	18.4	68	9.6	0	0	---	0.00	30.429 
05:20	18.4	18.4	18.4	68	9.6	0	1	248	0.00	30.429 
05:25	18.6	18.6	18.6	68	9.8	0	1	248	0.00	30.429 
05:30	18.6	18.6	18.6	67	9.5	0	1	248	0.00	30.431 
05:35	18.8	18.8	18.8	67	9.7	0	0	---	0.00	30.431 
05:40	18.9	18.9	18.9	67	9.8	0	1	248	0.00	30.431 
05:45	18.9	18.9	18.9	67	9.8	0	0	---	0.00	30.431 
05:50	18.9	18.9	18.9	67	9.8	0	0	---	0.00	30.431 
05:55	19.1	19.1	19.1	67	10.0	0	0	---	0.00	30.431 
06:00	19.1	19.1	19.1	67	10.0	0	0	---	0.00	30.433 
06:05	18.9	18.9	18.9	67	9.8	0	0	---	0.00	30.433 
06:10	18.9	18.9	18.9	67	9.8	0	0	---	0.00	30.433 
06:15	18.8	18.8	18.8	67	9.7	0	0	---	0.00	30.432 
06:20	18.8	18.8	18.8	67	9.7	0	0	---	0.00	30.432 
06:25	18.6	18.6	18.6	68	9.8	0	0	---	0.00	30.432 
06:30	18.6	18.6	18.6	68	9.8	0	0	---	0.00	30.437 
06:35	18.8	18.8	18.8	68	10.0	0	2	248	0.00	30.437 
06:40	18.8	18.8	18.8	68	10.0	0	0	---	0.00	30.437 
06:45	18.8	18.8	18.8	67	9.7	0	0	---	0.00	30.439 
06:50	18.8	18.8	18.8	67	9.7	0	0	---	0.00	30.439 
06:55	18.6	18.6	18.6	68	9.8	0	0	---	0.00	30.439 
07:00	18.6	18.6	18.6	68	9.8	0	0	---	0.00	30.439 
07:05	18.6	18.6	18.6	68	9.8	0	0	---	0.00	30.439 
07:10	18.6	18.6	18.6	68	9.8	0	1	248	0.00	30.439 
07:15	18.6	18.6	18.6	68	9.8	0	0	---	0.00	30.437 
07:20	18.8	18.8	18.8	68	10.0	0	1	248	0.00	30.437 
07:25	18.8	18.8	18.8	68	10.0	0	1	248	0.00	30.437 
07:30	18.8	18.8	18.8	67	9.7	0	0	---	0.00	30.438 
07:35	18.8	18.8	18.8	68	10.0	0	0	---	0.00	30.438 
07:40	18.9	18.9	18.9	68	10.1	0	1	248	0.00	30.438 
07:45	18.9	18.9	18.9	68	10.1	0	0	---	0.00	30.439 
07:50	18.9	18.9	18.9	67	9.8	0	1	248	0.00	30.439 
07:55	18.9	18.9	18.9	67	9.8	0	0	---	0.00	30.439 
08:00	18.9	18.9	18.9	67	9.8	0	0	---	0.00	30.440 
08:05	18.9	18.9	18.9	67	9.8	0	0	---	0.00	30.440 
08:10	18.8	18.8	18.8	67	9.7	0	0	---	0.00	30.440 
08:15	18.8	18.8	18.8	67	9.7	0	0	---	0.00	30.442 
08:20	18.8	18.8	18.8	68	10.0	0	0	---	0.00	30.442 
08:25	18.9	18.9	18.9	68	10.1	0	0	---	0.00	30.442 
08:30	19.1	19.1	19.1	67	10.0	0	1	248	0.00	30.449 
08:35	19.4	19.4	19.4	67	10.3	0	1	248	0.00	30.449 
08:40	19.9	19.9	19.9	66	10.4	0	2	248	0.00	30.449 
08:45	20.3	20.3	20.3	66	10.8	0	1	248	0.00	30.452 
08:50	20.6	20.6	20.6	66	11.1	0	1	248	0.00	30.452 
08:55	21.0	21.0	21.0	65	11.1	0	1	248	0.00	30.452 
09:00	21.6	21.6	21.6	64	11.3	0	2	248	0.00	30.453 
09:05	22.1	22.1	22.1	64	11.8	0	2	248	0.00	30.453 
09:10	22.5	22.5	22.5	62	11.5	0	3	248	0.00	30.453 
09:15	23.0	23.0	23.0	62	11.9	0	1	225	0.00	30.458 
09:20	23.5	23.5	23.5	61	12.1	1	3	90	0.00	30.458 
09:25	23.9	23.9	23.9	60	12.1	1	4	90	0.00	30.458 
09:30	24.4	24.4	24.4	59	12.2	1	3	112	0.00	30.451 
09:35	24.8	24.8	24.8	58	12.1	0	2	112	0.00	30.451 
09:40	25.3	25.3	25.3	58	12.6	0	2	112	0.00	30.451 
09:45	25.7	25.7	25.7	56	12.2	1	4	68	0.00	30.446 
09:50	26.1	26.1	26.1	57	13.0	0	2	68	0.00	30.446 
09:55	26.4	26.4	26.4	56	12.9	1	2	292	0.00	30.446 
10:00	26.7	26.7	26.7	55	12.7	0	2	0	0.00	30.446 
10:05	27.0	27.0	27.0	55	13.0	1	4	248	0.00	30.446 
10:10	27.3	27.3	27.3	53	12.5	1	5	270	0.00	30.446 
10:15	27.8	27.8	27.8	53	12.9	0	3	248	0.00	30.441 
10:20	28.1	28.1	28.1	52	12.8	1	3	248	0.00	30.441 
10:25	28.5	28.5	28.5	51	12.7	1	3	248	0.00	30.441 
10:30	28.7	28.7	28.7	51	12.9	1	4	248	0.00	30.433 
10:35	29.1	29.1	29.1	50	12.8	2	5	248	0.00	30.433 
10:40	29.3	29.3	29.3	51	13.4	1	5	248	0.00	30.433 
10:45	29.5	29.5	29.5	50	13.2	1	7	225	0.00	30.428 
10:50	30.0	30.0	30.0	50	13.6	1	5	112	0.00	30.428 
10:55	30.3	30.3	30.3	50	13.9	1	4	248	0.00	30.428 
11:00	30.7	30.7	30.7	50	14.3	0	4	248	0.00	30.423 
11:05	31.2	31.2	31.2	49	14.3	1	4	90	0.00	30.423 
11:10	31.5	31.5	31.5	49	14.6	1	3	248	0.00	30.423 
11:15	31.9	31.9	31.9	48	14.5	1	4	248	0.00	30.420 
11:20	32.2	32.2	32.2	48	14.7	2	4	90	0.00	30.420 
11:25	32.5	32.5	32.5	49	15.5	1	4	45	0.00	30.420 
11:30	32.8	32.8	32.8	49	15.8	0	3	270	0.00	30.413 
11:35	33.1	33.1	33.1	47	15.1	1	3	90	0.00	30.413 
11:40	33.4	33.4	33.4	47	15.4	1	6	90	0.00	30.413 
11:45	33.7	33.7	33.7	46	15.1	1	4	112	0.00	30.398 
11:50	33.8	33.8	33.8	45	14.7	2	5	68	0.00	30.398 
11:55	34.1	34.1	34.1	45	15.0	2	4	90	0.00	30.398 
12:00	34.3	34.3	34.3	45	15.2	1	5	90	0.00	30.388 
12:05	34.6	34.6	34.6	45	15.5	2	5	90	0.00	30.388 
12:10	34.7	34.7	34.7	44	15.0	1	6	90	0.00	30.388 
12:15	34.9	34.9	34.9	44	15.2	1	5	270	0.00	30.378 
12:20	35.0	35.0	35.0	45	15.8	1	3	0	0.00	30.378 
12:25	35.2	35.2	35.2	44	15.5	1	5	112	0.00	30.378 
12:30	35.5	35.5	35.5	42	14.7	2	5	90	0.00	30.366 
12:35	35.6	35.6	35.6	42	14.8	1	4	68	0.00	30.366 
12:40	35.8	35.8	35.8	43	15.5	1	3	45	0.00	30.366 
12:45	35.9	35.9	35.9	42	15.1	1	4	45	0.00	30.359 
12:50	36.0	36.0	36.0	42	15.2	1	4	248	0.00	30.359 
12:55	36.2	36.2	36.2	39	13.7	2	8	68	0.00	30.359 
13:00	36.2	36.2	36.2	41	14.8	2	6	90	0.00	30.351 
13:05	36.5	36.5	36.5	43	16.2	1	3	225	0.00	30.351 
13:10	36.6	36.6	36.6	39	14.0	2	7	248	0.00	30.351 
13:15	36.8	36.8	36.8	39	14.2	2	6	270	0.00	30.344 
13:20	36.9	36.9	36.9	40	14.9	1	4	248	0.00	30.344 
13:25	37.0	37.0	37.0	39	14.4	2	6	248	0.00	30.344 
13:30	37.2	37.2	37.2	40	15.1	1	3	112	0.00	30.330 
13:35	37.3	37.3	37.3	41	15.8	1	4	112	0.00	30.330 
13:40	37.6	37.6	37.6	40	15.5	1	3	90	0.00	30.330 
13:45	37.6	37.6	37.6	40	15.5	1	5	68	0.00	30.329 
13:50	37.8	37.8	37.8	37	13.9	2	7	68	0.00	30.329 
13:55	37.8	37.8	37.8	39	15.1	1	4	45	0.00	30.329 
14:00	37.6	37.6	37.6	36	13.1	2	5	292	0.00	30.326 
14:05	37.8	37.8	37.8	38	14.5	1	3	90	0.00	30.326 
14:10	37.8	37.8	37.8	35	12.6	2	6	112	0.00	30.326 
14:15	37.8	37.8	37.8	38	14.5	2	7	90	0.00	30.328 
14:20	37.9	37.9	37.9	37	14.0	1	5	68	0.00	30.328 
14:25	38.0	38.0	38.0	38	14.7	1	7	112	0.00	30.328 
14:30	38.0	38.0	38.0	38	14.7	1	3	248	0.00	30.328 
14:35	38.3	38.3	38.3	37	14.3	1	4	248	0.00	30.328 
14:40	38.6	38.6	38.6	36	14.0	1	5	68	0.00	30.328 
14:45	38.9	38.9	38.9	36	14.2	1	4	270	0.00	30.321 
14:50	38.8	38.8	38.8	34	12.9	2	6	90	0.00	30.321 
14:55	38.6	38.6	38.6	34	12.7	3	6	90	0.00	30.321 
15:00	38.3	38.3	38.3	35	13.1	3	7	90	0.00	30.315 
15:05	38.3	38.3	38.3	37	14.3	2	6	68	0.00	30.315 
15:10	38.3	38.3	38.3	37	14.3	1	4	90	0.00	30.315 
15:15	38.5	38.5	38.5	35	13.3	2	7	90	0.00	30.306 
15:20	38.3	38.3	38.3	35	13.1	1	5	112	0.00	30.306 
15:25	38.2	38.2	38.2	36	13.6	1	4	112	0.00	30.306 
15:30	38.3	38.3	38.3	34	12.4	2	5	135	0.00	30.299 
15:35	38.3	38.3	38.3	34	12.4	2	6	112	0.00	30.299 
15:40	38.8	38.8	38.8	37	14.8	1	3	90	0.00	30.299 
15:45	38.6	38.6	38.6	36	14.0	1	4	112	0.00	30.296 
15:50	38.3	38.3	38.3	35	13.1	1	4	90	0.00	30.296 
15:55	38.2	38.2	38.2	36	13.6	1	4	90	0.00	30.296 
16:00	38.0	38.0	38.0	37	14.1	1	3	112	0.00	30.296 
16:05	38.0	38.0	38.0	37	14.1	2	7	112	0.00	30.296 
16:10	38.0	38.0	38.0	36	13.4	1	4	90	0.00	30.296 
16:15	37.9	37.9	37.9	37	14.0	2	5	90	0.00	30.288 
16:20	37.9	37.9	37.9	36	13.4	2	5	112	0.00	30.288 
16:25	37.8	37.8	37.8	37	13.9	1	4	112	0.00	30.288 
16:30	37.6	37.6	37.6	37	13.7	1	4	135	0.00	30.283 
16:35	37.5	37.5	37.5	38	14.2	1	5	90	0.00	30.283 
16:40	37.3	37.3	37.3	39	14.6	1	3	112	0.00	30.283 
16:45	37.0	37.0	37.0	39	14.4	0	1	112	0.00	30.287 
16:50	36.9	36.9	36.9	39	14.3	1	3	112	0.00	30.287 
16:55	36.8	36.8	36.8	40	14.8	0	2	112	0.00	30.287 
17:00	36.5	36.5	36.5	41	15.1	0	2	112	0.00	30.286 
17:05	36.3	36.3	36.3	42	15.4	0	1	112	0.00	30.286 
17:10	36.2	36.2	36.2	43	15.9	0	2	112	0.00	30.286 
17:15	36.0	36.0	36.0	43	15.7	0	3	112	0.00	30.284 
17:20	36.0	36.0	36.0	43	15.7	1	3	90	0.00	30.284 
17:25	36.0	36.0	36.0	44	16.2	0	2	90	0.00	30.284 
17:30	36.0	36.0	36.0	45	16.7	0	2	90	0.00	30.280 
17:35	35.9	35.9	35.9	46	17.2	0	2	90	0.00	30.280 
17:40	35.9	35.9	35.9	47	17.7	0	1	90	0.00	30.280 
17:45	35.9	35.9	35.9	47	17.7	0	2	90	0.00	30.281 
17:50	35.8	35.8	35.8	48	18.1	0	1	90	0.00	30.281 
17:55	35.8	35.8	35.8	49	18.5	0	1	90	0.00	30.281 
18:00	35.8	35.8	35.8	49	18.5	0	2	90	0.00	30.281 
18:05	35.6	35.6	35.6	50	18.8	0	3	90	0.00	30.281 
18:10	35.6	35.6	35.6	49	18.3	1	4	68	0.00	30.281 
18:15	35.8	35.8	35.8	49	18.5	0	2	112	0.00	30.284 
18:20	35.8	35.8	35.8	49	18.5	0	2	90	0.00	30.284 
18:25	35.8	35.8	35.8	48	18.1	1	2	90	0.00	30.284 
18:30	35.9	35.9	35.9	48	18.1	1	3	112	0.00	30.283 
18:35	35.9	35.9	35.9	48	18.1	1	2	112	0.00	30.283 
18:40	35.9	35.9	35.9	48	18.1	0	3	90	0.00	30.283 
18:45	35.9	35.9	35.9	47	17.7	1	2	90	0.00	30.284 
18:50	35.9	35.9	35.9	46	17.2	0	2	90	0.00	30.284 
18:55	36.0	36.0	36.0	45	16.7	1	3	112	0.00	30.284 
19:00	36.2	36.2	36.2	45	16.9	1	5	90	0.00	30.285 
19:05	36.3	36.3	36.3	44	16.5	1	5	90	0.00	30.285 
19:10	36.3	36.3	36.3	44	16.5	1	3	112	0.00	30.285 
19:15	36.5	36.5	36.5	43	16.2	1	4	90	0.00	30.278 
19:20	36.5	36.5	36.5	43	16.2	1	3	90	0.00	30.278 
19:25	36.5	36.5	36.5	43	16.2	1	5	90	0.00	30.278 
19:30	36.6	36.6	36.6	43	16.2	1	4	68	0.00	30.269 
19:35	36.6	36.6	36.6	44	16.8	1	4	90	0.00	30.269 
19:40	36.5	36.5	36.5	44	16.7	1	3	112	0.00	30.269 
19:45	36.5	36.5	36.5	43	16.2	1	4	112	0.00	30.266 
19:50	36.5	36.5	36.5	43	16.2	1	3	112	0.00	30.266 
19:55	36.6	36.6	36.6	43	16.2	1	5	68	0.00	30.266 
20:00	36.6	36.6	36.6	43	16.2	1	3	112	0.00	30.254 
20:05	36.6	36.6	36.6	43	16.2	1	5	68	0.00	30.254 
20:10	36.6	36.6	36.6	43	16.2	2	4	90	0.00	30.254 
20:15	36.6	36.6	36.6	44	16.8	1	3	90	0.00	30.250 
20:20	36.5	36.5	36.5	44	16.7	1	4	112	0.00	30.250 
20:25	36.5	36.5	36.5	46	17.7	1	2	112	0.00	30.250 
20:30	36.2	36.2	36.2	46	17.4	1	4	90	0.00	30.236 
20:35	36.2	36.2	36.2	46	17.4	1	3	135	0.00	30.236 
20:40	36.0	36.0	36.0	46	17.3	1	3	112	0.00	30.236 
20:45	36.0	36.0	36.0	47	17.7	1	3	112	0.00	30.223 
20:50	35.9	35.9	35.9	48	18.1	0	2	112	0.00	30.223 
20:55	35.9	35.9	35.9	48	18.1	0	3	90	0.00	30.223 
21:00	35.9	35.9	35.9	48	18.1	0	2	90	0.00	30.219 
21:05	35.9	35.9	35.9	48	18.1	0	1	90	0.00	30.219 
21:10	35.9	35.9	35.9	47	17.7	0	3	90	0.00	30.219 
21:15	35.9	35.9	35.9	48	18.1	0	1	112	0.00	30.203 
21:20	35.8	35.8	35.8	49	18.5	0	1	112	0.00	30.203 
21:25	35.8	35.8	35.8	48	18.1	1	4	112	0.00	30.203 
21:30	35.8	35.8	35.8	49	18.5	1	5	90	0.00	30.186 
21:35	35.6	35.6	35.6	50	18.8	0	2	135	0.00	30.186 
21:40	35.6	35.6	35.6	50	18.8	1	4	135	0.00	30.186 
21:45	35.6	35.6	35.6	50	18.8	1	2	135	0.00	30.172 
21:50	35.5	35.5	35.5	51	19.2	1	3	112	0.00	30.172 
21:55	35.5	35.5	35.5	50	18.7	1	3	135	0.00	30.172 
22:00	35.5	35.5	35.5	50	18.7	1	3	90	0.00	30.173 
22:05	35.5	35.5	35.5	50	18.7	1	4	90	0.00	30.173 
22:10	35.5	35.5	35.5	50	18.7	1	2	90	0.00	30.173 
22:15	35.5	35.5	35.5	51	19.2	1	3	90	0.00	30.162 
22:20	35.5	35.5	35.5	51	19.2	1	4	112	0.00	30.162 
22:25	35.5	35.5	35.5	51	19.2	1	3	112	0.00	30.162 
22:30	35.5	35.5	35.5	52	19.6	1	3	90	0.00	30.148 
22:35	35.3	35.3	35.3	53	19.9	1	4	68	0.00	30.148 
22:40	35.3	35.3	35.3	52	19.5	2	6	90	0.00	30.148 
22:45	35.5	35.5	35.5	50	18.7	2	5	90	0.00	30.136 
22:50	35.6	35.6	35.6	49	18.3	2	5	90	0.00	30.136 
22:55	35.8	35.8	35.8	48	18.1	2	4	112	0.00	30.136 
23:00	35.9	35.9	35.9	47	17.7	2	7	112	0.00	30.130 
23:05	36.0	36.0	36.0	47	17.7	2	4	112	0.00	30.130 
23:10	36.0	36.0	36.0	47	17.7	1	5	90	0.00	30.130 
23:15	36.2	36.2	36.2	46	17.4	2	6	68	0.00	30.129 
23:20	36.3	36.3	36.3	46	17.5	2	5	90	0.00	30.129 
23:25	36.5	36.5	36.5	44	16.7	2	5	90	0.00	30.129 
23:30	36.6	36.6	36.6	44	16.8	2	5	90	0.00	30.121 
23:35	36.8	36.8	36.8	44	17.0	2	6	90	0.00	30.121 
23:40	36.8	36.8	36.8	44	17.0	2	5	135	0.00	30.121 
23:45	36.9	36.9	36.9	44	17.0	2	5	90	0.00	30.097 
23:50	36.9	36.9	36.9	46	18.1	1	5	112	0.00	30.097 
23:55	36.8	36.8	36.8	48	19.0	1	4	135	0.00	30.097 

CoCoRaHS
IN-AL-39
A2 Web Hosting
Creative Commons License
GoDaddy
search engine by freefind advanced

loaded 2018-11-15 14:42:26 • last modified 2010-11-18 10:43:29
Privacy PolicyDisclaimer
• wx.awcolley.com is powered by PmWiki v.2002016 •
• all content (unless otherwise noted) © 2018 A W Colley